createdAt,value
2018-09-23T00:00:37.572Z,982.89
2018-09-23T00:01:37.541Z,982.90
2018-09-23T00:02:37.501Z,982.91
2018-09-23T00:03:37.463Z,982.88
2018-09-23T00:04:37.430Z,982.87
2018-09-23T00:05:37.387Z,982.83
2018-09-23T00:06:37.349Z,982.79
2018-09-23T00:07:37.309Z,982.74
2018-09-23T00:08:37.275Z,982.74
2018-09-23T00:09:37.239Z,982.74
2018-09-23T00:10:37.204Z,982.66
2018-09-23T00:11:37.165Z,982.63
2018-09-23T00:12:37.129Z,982.62
2018-09-23T00:13:37.093Z,982.58
2018-09-23T00:14:37.051Z,982.57
2018-09-23T00:15:37.017Z,982.59
2018-09-23T00:16:36.978Z,982.59
2018-09-23T00:17:36.943Z,982.63
2018-09-23T00:18:36.901Z,982.57
2018-09-23T00:19:36.863Z,982.51
2018-09-23T00:20:36.829Z,982.51
2018-09-23T00:21:36.792Z,982.46
2018-09-23T00:22:36.759Z,982.42
2018-09-23T00:23:36.750Z,982.36
2018-09-23T00:24:36.682Z,982.34
2018-09-23T00:25:36.643Z,982.36
2018-09-23T00:26:36.611Z,982.38
2018-09-23T00:27:36.573Z,982.38
2018-09-23T00:28:36.529Z,982.38
2018-09-23T00:29:36.498Z,982.33
2018-09-23T00:30:36.466Z,982.24
2018-09-23T00:31:36.419Z,982.22
2018-09-23T00:32:36.383Z,982.24
2018-09-23T00:33:36.346Z,982.30
2018-09-23T00:34:36.312Z,982.23
2018-09-23T00:35:36.272Z,982.16
2018-09-23T00:36:36.236Z,982.05
2018-09-23T00:37:36.194Z,981.99
2018-09-23T00:38:36.164Z,981.98
2018-09-23T00:39:36.118Z,981.94
2018-09-23T00:40:36.084Z,981.92
2018-09-23T00:41:36.046Z,981.93
2018-09-23T00:42:36.020Z,981.92
2018-09-23T00:43:35.975Z,981.89
2018-09-23T00:44:35.936Z,981.84
2018-09-23T00:45:35.896Z,981.85
2018-09-23T00:46:35.858Z,981.81
2018-09-23T00:47:35.832Z,981.79
2018-09-23T00:48:35.787Z,981.83
2018-09-23T00:49:35.746Z,981.76
2018-09-23T00:50:35.709Z,981.72
2018-09-23T00:51:35.674Z,981.71
2018-09-23T00:52:35.635Z,981.61
2018-09-23T00:53:35.601Z,981.66
2018-09-23T00:54:35.572Z,981.69
2018-09-23T00:55:35.526Z,981.67
2018-09-23T00:56:35.489Z,981.69
2018-09-23T00:57:35.450Z,981.70
2018-09-23T00:58:35.410Z,981.70
2018-09-23T00:59:35.370Z,981.68
2018-09-23T01:00:35.342Z,981.65
2018-09-23T01:01:35.303Z,981.66
2018-09-23T01:02:35.269Z,981.61
2018-09-23T01:03:35.225Z,981.62
2018-09-23T01:04:35.191Z,981.57
2018-09-23T01:05:35.153Z,981.56
2018-09-23T01:06:35.118Z,981.55
2018-09-23T01:07:35.080Z,981.54
2018-09-23T01:08:35.040Z,981.54
2018-09-23T01:09:35.001Z,981.56
2018-09-23T01:10:34.964Z,981.49
2018-09-23T01:11:34.924Z,981.47
2018-09-23T01:12:34.888Z,981.47
2018-09-23T01:13:34.855Z,981.38
2018-09-23T01:14:34.817Z,981.33
2018-09-23T01:15:34.781Z,981.39
2018-09-23T01:16:34.742Z,981.35
2018-09-23T01:17:34.705Z,981.42
2018-09-23T01:18:34.663Z,981.45
2018-09-23T01:19:34.631Z,981.46
2018-09-23T01:20:34.596Z,981.42
2018-09-23T01:21:34.553Z,981.39
2018-09-23T01:22:34.514Z,981.33
2018-09-23T01:23:34.480Z,981.26
2018-09-23T01:24:34.442Z,981.22
2018-09-23T01:25:34.408Z,981.16
2018-09-23T01:26:34.371Z,981.12
2018-09-23T01:27:34.336Z,981.05
2018-09-23T01:28:34.296Z,980.99
2018-09-23T01:29:34.257Z,980.92
2018-09-23T01:30:34.217Z,980.87
2018-09-23T01:31:34.180Z,980.86
2018-09-23T01:32:34.144Z,980.85
2018-09-23T01:33:34.112Z,980.82
2018-09-23T01:34:34.074Z,980.84
2018-09-23T01:35:34.032Z,980.85
2018-09-23T01:36:33.997Z,980.83
2018-09-23T01:37:33.960Z,980.81
2018-09-23T01:38:33.929Z,980.76
2018-09-23T01:39:33.886Z,980.73
2018-09-23T01:40:33.849Z,980.78
2018-09-23T01:41:33.808Z,980.83
2018-09-23T01:42:33.768Z,980.75
2018-09-23T01:43:33.731Z,980.69
2018-09-23T01:44:33.696Z,980.67
2018-09-23T01:45:33.661Z,980.63
2018-09-23T01:46:33.625Z,980.60
2018-09-23T01:47:33.589Z,980.56
2018-09-23T01:48:33.550Z,980.56
2018-09-23T01:49:33.510Z,980.61
2018-09-23T01:50:33.470Z,980.60
2018-09-23T01:51:33.437Z,980.56
2018-09-23T01:52:33.459Z,980.54
2018-09-23T01:53:33.361Z,980.52
2018-09-23T01:54:33.320Z,980.48
2018-09-23T01:55:33.281Z,980.48
2018-09-23T01:56:33.247Z,980.47
2018-09-23T01:57:33.214Z,980.44
2018-09-23T01:58:33.176Z,980.47
2018-09-23T01:59:33.141Z,980.44
2018-09-23T02:00:33.098Z,980.46
2018-09-23T02:01:33.059Z,980.40
2018-09-23T02:02:33.021Z,980.41
2018-09-23T02:03:32.982Z,980.39
2018-09-23T02:04:32.951Z,980.29
2018-09-23T02:05:32.916Z,980.28
2018-09-23T02:06:32.876Z,980.26
2018-09-23T02:07:32.834Z,980.27
2018-09-23T02:08:32.799Z,980.27
2018-09-23T02:09:32.762Z,980.20
2018-09-23T02:10:32.727Z,980.17
2018-09-23T02:11:32.691Z,980.14
2018-09-23T02:12:32.649Z,980.14
2018-09-23T02:13:32.613Z,980.06
2018-09-23T02:14:32.571Z,979.99
2018-09-23T02:15:32.532Z,979.93
2018-09-23T02:16:32.497Z,979.89
2018-09-23T02:17:32.462Z,979.91
2018-09-23T02:18:32.430Z,979.90
2018-09-23T02:19:32.388Z,979.88
2018-09-23T02:20:32.351Z,979.81
2018-09-23T02:21:32.310Z,979.83
2018-09-23T02:22:32.271Z,979.79
2018-09-23T02:23:32.239Z,979.77
2018-09-23T02:24:32.200Z,979.73
2018-09-23T02:25:32.160Z,979.80
2018-09-23T02:26:32.122Z,979.78
2018-09-23T02:27:32.084Z,979.83
2018-09-23T02:28:32.047Z,979.85
2018-09-23T02:29:32.013Z,979.84
2018-09-23T02:30:31.981Z,979.79
2018-09-23T02:31:31.939Z,979.77
2018-09-23T02:32:31.899Z,979.72
2018-09-23T02:33:31.861Z,979.68
2018-09-23T02:34:31.820Z,979.62
2018-09-23T02:35:31.783Z,979.61
2018-09-23T02:36:31.753Z,979.63
2018-09-23T02:37:31.715Z,979.63
2018-09-23T02:38:31.678Z,979.58
2018-09-23T02:39:31.635Z,979.59
2018-09-23T02:40:31.599Z,979.55
2018-09-23T02:41:31.570Z,979.56
2018-09-23T02:42:31.527Z,979.57
2018-09-23T02:43:31.491Z,979.60
2018-09-23T02:44:31.450Z,979.64
2018-09-23T02:45:31.410Z,979.67
2018-09-23T02:46:31.370Z,979.76
2018-09-23T02:47:31.334Z,979.78
2018-09-23T02:48:31.312Z,979.74
2018-09-23T02:49:31.263Z,979.70
2018-09-23T02:50:31.227Z,979.64
2018-09-23T02:51:31.210Z,979.60
2018-09-23T02:52:31.284Z,979.56
2018-09-23T02:53:31.112Z,979.56
2018-09-23T02:54:31.071Z,979.57
2018-09-23T02:55:31.057Z,979.53
2018-09-23T02:56:31.017Z,979.52
2018-09-23T02:57:30.977Z,979.46
2018-09-23T02:58:30.983Z,979.43
2018-09-23T02:59:30.916Z,979.40
2018-09-23T03:00:31.069Z,979.36
2018-09-23T03:01:30.819Z,979.40
2018-09-23T03:02:30.784Z,979.37
2018-09-23T03:03:30.749Z,979.33
2018-09-23T03:04:30.806Z,979.26
2018-09-23T03:05:30.699Z,979.22
2018-09-23T03:06:30.638Z,979.21
2018-09-23T03:07:30.588Z,979.18
2018-09-23T03:08:30.550Z,979.11
2018-09-23T03:09:30.514Z,979.11
2018-09-23T03:10:30.478Z,979.07
2018-09-23T03:11:30.433Z,979.03
2018-09-23T03:12:30.400Z,979.03
2018-09-23T03:13:30.370Z,979.00
2018-09-23T03:14:30.334Z,978.95
2018-09-23T03:15:30.292Z,978.95
2018-09-23T03:16:30.253Z,978.90
2018-09-23T03:17:30.218Z,978.84
2018-09-23T03:18:30.174Z,978.87
2018-09-23T03:19:30.145Z,978.86
2018-09-23T03:20:30.100Z,978.85
2018-09-23T03:21:30.064Z,978.90
2018-09-23T03:22:30.030Z,978.85
2018-09-23T03:23:29.991Z,978.84
2018-09-23T03:24:29.953Z,978.88
2018-09-23T03:25:29.913Z,978.87
2018-09-23T03:26:29.875Z,978.84
2018-09-23T03:27:29.841Z,978.84
2018-09-23T03:28:29.811Z,978.80
2018-09-23T03:29:29.764Z,978.80
2018-09-23T03:30:29.724Z,978.76
2018-09-23T03:31:29.685Z,978.78
2018-09-23T03:32:29.652Z,978.77
2018-09-23T03:33:29.614Z,978.73
2018-09-23T03:34:29.580Z,978.74
2018-09-23T03:35:29.542Z,978.72
2018-09-23T03:36:29.504Z,978.74
2018-09-23T03:37:29.462Z,978.76
2018-09-23T03:38:29.423Z,978.81
2018-09-23T03:39:29.389Z,978.77
2018-09-23T03:40:29.353Z,978.81
2018-09-23T03:41:29.314Z,978.81
2018-09-23T03:42:29.286Z,978.79
2018-09-23T03:43:29.237Z,978.77
2018-09-23T03:44:29.200Z,978.75
2018-09-23T03:45:29.167Z,978.77
2018-09-23T03:46:29.129Z,978.79
2018-09-23T03:47:29.098Z,978.78
2018-09-23T03:48:29.055Z,978.76
2018-09-23T03:49:29.012Z,978.79
2018-09-23T03:50:28.975Z,978.72
2018-09-23T03:51:28.936Z,978.67
2018-09-23T03:52:28.899Z,978.67
2018-09-23T03:53:28.866Z,978.66
2018-09-23T04:06:28.745Z,978.46
2018-09-23T04:07:28.651Z,978.47
2018-09-23T04:08:28.615Z,978.45
2018-09-23T04:09:28.573Z,978.42
2018-09-23T04:10:28.530Z,978.45
2018-09-23T04:11:28.496Z,978.43
2018-09-23T04:12:28.452Z,978.40
2018-09-23T04:13:28.405Z,978.37
2018-09-23T04:14:28.368Z,978.39
2018-09-23T04:15:28.329Z,978.38
2018-09-23T04:16:28.295Z,978.31
2018-09-23T04:17:28.253Z,978.33
2018-09-23T04:18:28.215Z,978.27
2018-09-23T04:19:28.178Z,978.26
2018-09-23T04:20:28.133Z,978.20
2018-09-23T04:21:28.106Z,978.19
2018-09-23T04:22:28.064Z,978.14
2018-09-23T04:23:28.024Z,978.07
2018-09-23T04:24:27.989Z,978.04
2018-09-23T04:25:27.943Z,978.01
2018-09-23T04:26:27.916Z,978.06
2018-09-23T04:27:27.874Z,978.05
2018-09-23T04:28:27.830Z,978.04
2018-09-23T04:29:27.804Z,977.98
2018-09-23T04:30:27.763Z,977.99
2018-09-23T04:31:27.717Z,977.99
2018-09-23T04:32:27.676Z,978.02
2018-09-23T04:33:27.646Z,978.01
2018-09-23T04:34:27.607Z,978.04
2018-09-23T04:35:27.569Z,978.00
2018-09-23T04:36:27.532Z,977.99
2018-09-23T04:37:27.492Z,977.96
2018-09-23T04:38:27.453Z,977.97
2018-09-23T04:39:27.413Z,978.00
2018-09-23T04:40:27.376Z,977.99
2018-09-23T04:41:27.343Z,977.99
2018-09-23T04:42:27.305Z,977.96
2018-09-23T04:43:27.266Z,977.97
2018-09-23T04:44:27.231Z,978.00
2018-09-23T04:45:27.204Z,977.95
2018-09-23T04:46:27.158Z,977.93
2018-09-23T04:47:27.116Z,977.97
2018-09-23T04:48:27.082Z,977.94
2018-09-23T04:49:27.040Z,977.93
2018-09-23T04:50:27.001Z,977.94
2018-09-23T04:51:26.963Z,977.90
2018-09-23T04:52:26.924Z,977.90
2018-09-23T04:53:26.891Z,977.88
2018-09-23T04:54:26.852Z,977.86
2018-09-23T04:55:26.891Z,977.88
2018-09-23T04:56:26.781Z,977.83
2018-09-23T04:57:26.735Z,977.86
2018-09-23T04:58:26.702Z,977.82
2018-09-23T04:59:26.663Z,977.80
2018-09-23T05:00:26.656Z,977.81
2018-09-23T05:01:26.590Z,977.84
2018-09-23T05:02:26.558Z,977.81
2018-09-23T05:03:26.513Z,977.81
2018-09-23T05:04:26.472Z,977.76
2018-09-23T05:05:26.442Z,977.73
2018-09-23T05:06:26.402Z,977.74
2018-09-23T05:07:26.367Z,977.71
2018-09-23T05:08:26.332Z,977.71
2018-09-23T05:09:26.290Z,977.70
2018-09-23T05:10:26.250Z,977.67
2018-09-23T05:11:26.211Z,977.64
2018-09-23T05:12:26.171Z,977.66
2018-09-23T05:13:26.141Z,977.63
2018-09-23T05:14:26.101Z,977.60
2018-09-23T05:15:26.065Z,977.60
2018-09-23T05:16:26.033Z,977.57
2018-09-23T05:17:25.994Z,977.57
2018-09-23T05:18:25.950Z,977.59
2018-09-23T05:19:25.917Z,977.57
2018-09-23T05:20:25.882Z,977.57
2018-09-23T05:21:25.838Z,977.54
2018-09-23T05:22:25.799Z,977.59
2018-09-23T05:23:25.768Z,977.54
2018-09-23T05:24:25.722Z,977.56
2018-09-23T05:25:25.693Z,977.58
2018-09-23T05:26:25.652Z,977.57
2018-09-23T05:27:25.614Z,977.60
2018-09-23T05:28:25.586Z,977.58
2018-09-23T05:29:25.539Z,977.55
2018-09-23T05:30:25.501Z,977.57
2018-09-23T05:31:25.466Z,977.58
2018-09-23T05:32:25.427Z,977.55
2018-09-23T05:33:25.393Z,977.58
2018-09-23T05:34:25.355Z,977.57
2018-09-23T05:35:25.366Z,977.59
2018-09-23T05:36:25.273Z,977.57
2018-09-23T05:37:25.242Z,977.57
2018-09-23T05:38:25.203Z,977.54
2018-09-23T05:39:25.163Z,977.56
2018-09-23T05:40:25.127Z,977.52
2018-09-23T05:41:25.088Z,977.55
2018-09-23T05:42:25.050Z,977.55
2018-09-23T05:43:25.013Z,977.56
2018-09-23T05:44:24.977Z,977.58
2018-09-23T05:45:24.946Z,977.53
2018-09-23T05:46:24.902Z,977.52
2018-09-23T05:47:24.867Z,977.52
2018-09-23T05:48:24.831Z,977.53
2018-09-23T05:49:24.786Z,977.55
2018-09-23T05:50:24.765Z,977.55
2018-09-23T05:51:24.717Z,977.51
2018-09-23T05:52:24.685Z,977.53
2018-09-23T05:53:24.636Z,977.56
2018-09-23T05:54:24.610Z,977.54
2018-09-23T05:55:24.565Z,977.55
2018-09-23T05:56:24.530Z,977.51
2018-09-23T05:57:24.515Z,977.52
2018-09-23T05:58:24.459Z,977.48
2018-09-23T05:59:24.421Z,977.50
2018-09-23T06:00:24.388Z,977.53
2018-09-23T06:01:24.338Z,977.50
2018-09-23T06:02:24.306Z,977.48
2018-09-23T06:03:24.269Z,977.44
2018-09-23T06:04:24.231Z,977.45
2018-09-23T06:05:24.194Z,977.44
2018-09-23T06:06:24.161Z,977.43
2018-09-23T06:07:24.115Z,977.36
2018-09-23T06:08:24.076Z,977.33
2018-09-23T06:09:24.045Z,977.34
2018-09-23T06:10:24.006Z,977.35
2018-09-23T06:11:23.968Z,977.34
2018-09-23T06:12:23.935Z,977.38
2018-09-23T06:13:23.894Z,977.38
2018-09-23T06:14:23.856Z,977.37
2018-09-23T06:15:23.817Z,977.36
2018-09-23T06:16:23.779Z,977.34
2018-09-23T06:17:23.750Z,977.34
2018-09-23T06:18:23.765Z,977.30
2018-09-23T06:19:23.673Z,977.33
2018-09-23T06:20:23.646Z,977.31
2018-09-23T06:21:23.590Z,977.28
2018-09-23T06:22:23.556Z,977.27
2018-09-23T06:23:23.523Z,977.28
2018-09-23T06:24:23.490Z,977.25
2018-09-23T06:25:23.576Z,977.28
2018-09-23T06:26:23.406Z,977.26
2018-09-23T06:27:23.370Z,977.28
2018-09-23T06:28:23.350Z,977.25
2018-09-23T06:29:23.301Z,977.24
2018-09-23T06:30:23.261Z,977.22
2018-09-23T06:31:23.222Z,977.23
2018-09-23T06:32:23.193Z,977.20
2018-09-23T06:33:23.145Z,977.19
2018-09-23T06:34:23.109Z,977.21
2018-09-23T06:35:23.069Z,977.18
2018-09-23T06:36:23.034Z,977.19
2018-09-23T06:37:23.006Z,977.18
2018-09-23T06:38:22.970Z,977.19
2018-09-23T06:39:22.931Z,977.18
2018-09-23T06:40:22.884Z,977.18
2018-09-23T06:41:22.860Z,977.20
2018-09-23T06:42:22.818Z,977.17
2018-09-23T06:43:22.778Z,977.18
2018-09-23T06:44:22.745Z,977.16
2018-09-23T06:45:22.700Z,977.19
2018-09-23T06:46:22.664Z,977.16
2018-09-23T06:47:22.635Z,977.20
2018-09-23T06:48:22.592Z,977.18
2018-09-23T06:49:22.561Z,977.14
2018-09-23T06:50:22.529Z,977.16
2018-09-23T06:51:22.483Z,977.14
2018-09-23T06:52:22.445Z,977.15
2018-09-23T06:53:22.404Z,977.16
2018-09-23T06:54:22.368Z,977.16
2018-09-23T06:55:22.333Z,977.18
2018-09-23T06:56:22.297Z,977.16
2018-09-23T06:57:22.299Z,977.17
2018-09-23T06:58:22.220Z,977.14
2018-09-23T06:59:22.186Z,977.10
2018-09-23T07:00:22.147Z,977.10
2018-09-23T07:01:22.117Z,977.10
2018-09-23T07:02:22.076Z,977.13
2018-09-23T07:03:22.041Z,977.12
2018-09-23T07:04:22.043Z,977.11
2018-09-23T07:05:21.961Z,977.07
2018-09-23T07:06:21.923Z,977.10
2018-09-23T07:07:21.885Z,977.08
2018-09-23T07:08:21.856Z,977.10
2018-09-23T07:09:21.836Z,977.11
2018-09-23T07:10:21.850Z,977.12
2018-09-23T07:11:21.739Z,977.12
2018-09-23T07:12:21.704Z,977.14
2018-09-23T07:13:21.669Z,977.15
2018-09-23T07:14:21.636Z,977.07
2018-09-23T07:15:21.597Z,977.08
2018-09-23T07:16:21.558Z,977.08
2018-09-23T07:17:21.521Z,977.09
2018-09-23T07:18:21.483Z,977.07
2018-09-23T07:19:21.447Z,977.02
2018-09-23T07:20:21.410Z,977.04
2018-09-23T07:21:21.375Z,977.03
2018-09-23T07:22:21.344Z,977.06
2018-09-23T07:23:21.306Z,977.04
2018-09-23T07:24:21.270Z,977.01
2018-09-23T07:25:21.231Z,977.00
2018-09-23T07:26:21.192Z,977.01
2018-09-23T07:27:21.159Z,977.00
2018-09-23T07:28:21.119Z,977.01
2018-09-23T07:29:21.083Z,977.05
2018-09-23T07:30:21.047Z,977.03
2018-09-23T07:31:21.013Z,976.99
2018-09-23T07:32:20.971Z,977.01
2018-09-23T07:33:20.936Z,977.04
2018-09-23T07:34:20.905Z,977.02
2018-09-23T07:35:20.869Z,977.04
2018-09-23T07:36:20.826Z,977.09
2018-09-23T07:37:20.789Z,977.11
2018-09-23T07:38:20.753Z,977.11
2018-09-23T07:39:20.724Z,977.10
2018-09-23T07:40:20.680Z,977.09
2018-09-23T07:41:20.647Z,977.10
2018-09-23T07:42:20.609Z,977.11
2018-09-23T07:43:20.569Z,977.10
2018-09-23T07:44:20.535Z,977.11
2018-09-23T07:45:20.500Z,977.10
2018-09-23T07:46:20.469Z,977.08
2018-09-23T07:47:20.426Z,977.09
2018-09-23T07:48:20.397Z,977.16
2018-09-23T07:49:20.353Z,977.14
2018-09-23T07:50:20.313Z,977.12
2018-09-23T07:51:20.275Z,977.10
2018-09-23T07:52:20.242Z,977.08
2018-09-23T07:53:20.211Z,977.12
2018-09-23T07:54:20.172Z,977.12
2018-09-23T07:55:20.133Z,977.14
2018-09-23T07:56:20.107Z,977.11
2018-09-23T07:57:20.059Z,977.15
2018-09-23T07:58:20.020Z,977.18
2018-09-23T07:59:19.988Z,977.19
2018-09-23T08:00:19.951Z,977.18
2018-09-23T08:01:19.913Z,977.17
2018-09-23T08:02:19.876Z,977.23
2018-09-23T08:03:19.885Z,977.20
2018-09-23T08:04:19.803Z,977.18
2018-09-23T08:05:19.769Z,977.15
2018-09-23T08:06:19.735Z,977.13
2018-09-23T08:07:19.701Z,977.06
2018-09-23T08:08:19.661Z,977.12
2018-09-23T08:09:19.622Z,977.11
2018-09-23T08:10:19.584Z,977.10
2018-09-23T08:11:19.546Z,977.10
2018-09-23T08:12:19.579Z,977.10
2018-09-23T08:13:19.595Z,977.05
2018-09-23T08:14:19.659Z,977.05
2018-09-23T08:15:19.406Z,977.07
2018-09-23T08:16:19.371Z,977.05
2018-09-23T08:17:19.423Z,977.03
2018-09-23T08:18:19.326Z,977.04
2018-09-23T08:19:19.292Z,977.05
2018-09-23T08:20:19.348Z,977.01
2018-09-23T08:21:19.195Z,977.02
2018-09-23T08:22:19.151Z,976.99
2018-09-23T08:23:19.162Z,977.00
2018-09-23T08:24:19.081Z,976.97
2018-09-23T08:25:19.147Z,976.95
2018-09-23T08:26:19.077Z,976.97
2018-09-23T08:27:18.989Z,976.96
2018-09-23T08:28:18.935Z,976.93
2018-09-23T08:29:18.904Z,976.90
2018-09-23T08:30:18.860Z,976.86
2018-09-23T08:31:18.832Z,976.87
2018-09-23T08:32:18.798Z,976.87
2018-09-23T08:33:18.755Z,976.85
2018-09-23T08:34:18.720Z,976.85
2018-09-23T08:35:18.682Z,976.86
2018-09-23T08:36:18.649Z,976.85
2018-09-23T08:37:18.618Z,976.88
2018-09-23T08:38:18.583Z,976.88
2018-09-23T08:39:18.542Z,976.84
2018-09-23T08:40:18.506Z,976.84
2018-09-23T08:41:18.467Z,976.84
2018-09-23T08:42:18.437Z,976.80
2018-09-23T08:43:18.415Z,976.81
2018-09-23T08:44:18.366Z,976.79
2018-09-23T08:45:18.326Z,976.75
2018-09-23T08:46:18.293Z,976.75
2018-09-23T08:47:18.252Z,976.71
2018-09-23T08:48:18.230Z,976.68
2018-09-23T08:49:18.186Z,976.72
2018-09-23T08:50:18.150Z,976.68
2018-09-23T08:51:18.116Z,976.74
2018-09-23T08:52:18.138Z,976.69
2018-09-23T08:53:18.036Z,976.67
2018-09-23T08:54:18.412Z,976.65
2018-09-23T08:55:17.967Z,976.68
2018-09-23T08:56:18.078Z,976.71
2018-09-23T08:57:17.953Z,976.67
2018-09-23T08:58:17.891Z,976.67
2018-09-23T08:59:17.829Z,976.63
2018-09-23T09:00:17.791Z,976.63
2018-09-23T09:01:17.750Z,976.63
2018-09-23T09:03:17.682Z,976.59
2018-09-23T09:04:17.647Z,976.53
2018-09-23T09:05:17.618Z,976.56
2018-09-23T09:06:17.568Z,976.53
2018-09-23T09:07:17.958Z,976.48
2018-09-23T09:09:17.471Z,976.49
2018-09-23T09:10:17.436Z,976.45
2018-09-23T09:11:17.449Z,976.47
2018-09-23T09:12:17.361Z,976.44
2018-09-23T09:13:17.318Z,976.39
2018-09-23T09:14:17.282Z,976.36
2018-09-23T09:15:17.255Z,976.33
2018-09-23T09:16:17.210Z,976.32
2018-09-23T09:17:17.182Z,976.29
2018-09-23T09:18:17.176Z,976.25
2018-09-23T09:19:17.191Z,976.21
2018-09-23T09:22:17.816Z,976.14
2018-09-23T09:24:17.015Z,976.16
2018-09-23T09:25:16.886Z,976.19
2018-09-23T09:27:16.851Z,976.21
2018-09-23T09:28:16.791Z,976.15
2018-09-23T09:29:16.775Z,976.21
2018-09-23T09:30:16.730Z,976.19
2018-09-23T09:33:16.612Z,976.19
2018-09-23T09:34:16.560Z,976.14
2018-09-23T09:35:16.563Z,976.12
2018-09-23T09:36:16.494Z,976.09
2018-09-23T09:37:16.479Z,976.05
2018-09-23T09:38:16.419Z,976.03
2018-09-23T09:39:16.379Z,976.01
2018-09-23T09:40:16.347Z,975.98
2018-09-23T09:41:16.314Z,975.94
2018-09-23T09:42:16.281Z,975.94
2018-09-23T09:43:16.251Z,975.95
2018-09-23T09:44:16.278Z,975.95
2018-09-23T09:45:16.203Z,975.93
2018-09-23T09:46:16.198Z,975.92
2018-09-23T09:47:16.117Z,975.88
2018-09-23T09:48:16.077Z,975.82
2018-09-23T09:49:16.027Z,975.79
2018-09-23T09:50:15.992Z,975.80
2018-09-23T09:51:15.949Z,975.75
2018-09-23T09:52:15.919Z,975.70
2018-09-23T09:53:15.883Z,975.69
2018-09-23T09:54:15.853Z,975.64
2018-09-23T09:55:15.859Z,975.60
2018-09-23T09:56:15.775Z,975.58
2018-09-23T09:57:15.742Z,975.55
2018-09-23T09:58:15.704Z,975.57
2018-09-23T09:59:15.665Z,975.52
2018-09-23T10:00:15.629Z,975.49
2018-09-23T10:01:15.612Z,975.54
2018-09-23T10:02:15.569Z,975.58
2018-09-23T10:03:15.528Z,975.57
2018-09-23T10:04:15.552Z,975.59
2018-09-23T10:05:15.451Z,975.52
2018-09-23T10:06:15.412Z,975.50
2018-09-23T10:20:58.875Z,974.92
2018-09-23T10:21:58.785Z,974.89
2018-09-23T10:22:58.785Z,974.86
2018-09-23T10:23:58.736Z,974.77
2018-09-23T10:24:58.663Z,974.76
2018-09-23T10:25:58.624Z,974.72
2018-09-23T10:26:58.581Z,974.69
2018-09-23T10:27:58.547Z,974.71
2018-09-23T10:28:58.507Z,974.69
2018-09-23T10:29:58.473Z,974.64
2018-09-23T10:30:58.479Z,974.60
2018-09-23T10:31:58.401Z,974.61
2018-09-23T10:32:58.359Z,974.63
2018-09-23T10:33:58.323Z,974.60
2018-09-23T10:34:58.284Z,974.61
2018-09-23T10:35:58.260Z,974.47
2018-09-23T10:36:58.213Z,974.41
2018-09-23T10:37:58.181Z,974.42
2018-09-23T10:38:58.145Z,974.40
2018-09-23T10:39:58.100Z,974.38
2018-09-23T10:40:58.061Z,974.40
2018-09-23T10:41:58.029Z,974.34
2018-09-23T10:42:57.997Z,974.27
2018-09-23T10:43:57.959Z,974.21
2018-09-23T10:44:57.919Z,974.19
2018-09-23T10:45:57.880Z,974.19
2018-09-23T10:46:57.843Z,974.15
2018-09-23T10:47:57.806Z,974.11
2018-09-23T10:48:57.772Z,974.05
2018-09-23T10:49:57.736Z,974.05
2018-09-23T10:50:57.703Z,973.99
2018-09-23T10:51:57.669Z,973.94
2018-09-23T10:52:57.631Z,973.92
2018-09-23T10:53:57.595Z,973.87
2018-09-23T10:54:57.552Z,973.78
2018-09-23T10:55:57.522Z,973.83
2018-09-23T10:56:57.486Z,973.71
2018-09-23T10:57:57.452Z,973.62
2018-09-23T10:58:57.410Z,973.63
2018-09-23T10:59:57.374Z,973.63
2018-09-23T11:00:57.337Z,973.64
2018-09-23T11:01:57.304Z,973.60
2018-09-23T11:02:57.267Z,973.66
2018-09-23T11:03:57.336Z,973.68
2018-09-23T11:04:57.193Z,973.64
2018-09-23T11:05:57.156Z,973.67
2018-09-23T11:06:57.116Z,973.72
2018-09-23T11:07:57.080Z,973.77
2018-09-23T11:08:57.051Z,973.75
2018-09-23T11:09:57.047Z,973.81
2018-09-23T11:10:56.977Z,973.88
2018-09-23T11:11:56.933Z,973.93
2018-09-23T11:12:56.900Z,973.88
2018-09-23T11:13:56.866Z,973.86
2018-09-23T11:14:56.835Z,973.68
2018-09-23T11:15:56.794Z,973.62
2018-09-23T11:16:56.757Z,973.69
2018-09-23T11:17:56.719Z,973.61
2018-09-23T11:18:56.684Z,973.64
2018-09-23T11:19:56.643Z,973.68
2018-09-23T11:20:56.611Z,973.65
2018-09-23T11:21:56.579Z,973.59
2018-09-23T11:22:56.539Z,973.55
2018-09-23T11:23:56.505Z,973.48
2018-09-23T11:24:56.493Z,973.41
2018-09-23T11:25:56.429Z,973.36
2018-09-23T11:26:56.391Z,973.32
2018-09-23T11:27:56.359Z,973.24
2018-09-23T11:28:56.320Z,973.26
2018-09-23T11:29:56.278Z,973.18
2018-09-23T11:30:56.238Z,973.08
2018-09-23T11:31:56.212Z,973.01
2018-09-23T11:32:56.167Z,973.01
2018-09-23T11:33:56.138Z,972.87
2018-09-23T11:34:56.100Z,972.83
2018-09-23T11:35:56.062Z,972.80
2018-09-23T11:36:56.022Z,972.79
2018-09-23T11:37:55.982Z,972.74
2018-09-23T11:38:55.947Z,972.66
2018-09-23T11:39:55.921Z,972.70
2018-09-23T11:40:55.879Z,972.64
2018-09-23T11:41:55.841Z,972.57
2018-09-23T11:42:55.824Z,972.57
2018-09-23T11:43:55.768Z,972.48
2018-09-23T11:44:55.724Z,972.48
2018-09-23T11:45:55.691Z,972.51
2018-09-23T11:46:55.654Z,972.68
2018-09-23T11:47:55.618Z,972.68
2018-09-23T11:48:55.579Z,972.71
2018-09-23T11:49:55.540Z,972.65
2018-09-23T11:50:55.512Z,972.54
2018-09-23T11:51:55.478Z,972.49
2018-09-23T11:52:55.430Z,972.51
2018-09-23T11:53:55.394Z,972.38
2018-09-23T11:54:55.357Z,972.30
2018-09-23T11:55:55.326Z,972.19
2018-09-23T11:56:55.284Z,972.35
2018-09-23T11:57:55.242Z,972.37
2018-09-23T11:58:55.214Z,972.35
2018-09-23T11:59:55.171Z,972.44
2018-09-23T12:00:55.133Z,972.55
2018-09-23T12:01:55.093Z,972.79
2018-09-23T12:02:55.057Z,972.95
2018-09-23T12:03:55.019Z,973.19
2018-09-23T12:04:54.983Z,973.20
2018-09-23T12:05:54.944Z,973.15
2018-09-23T12:06:54.909Z,972.96
2018-09-23T12:07:54.886Z,972.73
2018-09-23T12:08:54.836Z,972.63
2018-09-23T12:09:54.793Z,972.49
2018-09-23T12:10:54.844Z,972.49
2018-09-23T12:11:54.721Z,972.53
2018-09-23T12:12:54.679Z,972.58
2018-09-23T12:13:54.647Z,972.56
2018-09-23T12:14:54.692Z,972.58
2018-09-23T12:15:54.570Z,972.64
2018-09-23T12:16:54.531Z,972.66
2018-09-23T12:17:54.493Z,972.71
2018-09-23T12:18:54.458Z,972.78
2018-09-23T12:19:54.420Z,972.78
2018-09-23T12:20:54.399Z,972.72
2018-09-23T12:21:54.340Z,972.76
2018-09-23T12:22:54.300Z,972.80
2018-09-23T12:23:54.262Z,972.76
2018-09-23T12:24:54.231Z,972.47
2018-09-23T12:25:54.225Z,972.46
2018-09-23T12:26:54.155Z,972.61
2018-09-23T12:27:54.118Z,972.83
2018-09-23T12:28:54.079Z,973.11
2018-09-23T12:29:54.037Z,973.37
2018-09-23T12:30:53.997Z,973.23
2018-09-23T12:31:53.968Z,973.27
2018-09-23T12:32:53.930Z,973.36
2018-09-23T12:33:53.886Z,973.51
2018-09-23T12:34:53.845Z,973.80
2018-09-23T12:35:53.807Z,974.01
2018-09-23T12:36:53.782Z,974.16
2018-09-23T12:37:53.735Z,974.23
2018-09-23T12:38:53.700Z,974.12
2018-09-23T12:39:53.692Z,973.92
2018-09-23T12:40:53.625Z,973.99
2018-09-23T12:41:53.581Z,974.07
2018-09-23T12:42:53.541Z,974.11
2018-09-23T12:43:53.505Z,974.06
2018-09-23T12:44:53.470Z,974.13
2018-09-23T12:45:53.473Z,974.16
2018-09-23T12:46:53.395Z,974.21
2018-09-23T12:47:53.349Z,974.19
2018-09-23T12:48:53.319Z,974.20
2018-09-23T12:49:53.280Z,974.29
2018-09-23T12:50:53.240Z,974.45
2018-09-23T12:51:53.208Z,974.55
2018-09-23T12:52:53.179Z,974.57
2018-09-23T12:53:53.121Z,974.72
2018-09-23T12:54:53.084Z,974.50
2018-09-23T12:55:53.046Z,974.50
2018-09-23T12:56:53.011Z,974.52
2018-09-23T12:57:52.975Z,974.19
2018-09-23T12:58:52.934Z,974.01
2018-09-23T12:59:52.895Z,973.97
2018-09-23T13:00:52.859Z,974.06
2018-09-23T13:01:52.817Z,974.05